createdAt,value
2023-01-29T00:01:31.445Z,5.34
2023-01-29T00:03:59.026Z,5.02
2023-01-29T00:06:26.615Z,4.96
2023-01-29T00:08:55.563Z,5.14
2023-01-29T00:11:24.049Z,5.32
2023-01-29T00:13:51.936Z,5.54
2023-01-29T00:16:19.643Z,5.61
2023-01-29T00:18:47.845Z,5.41
2023-01-29T00:21:17.275Z,5.44
2023-01-29T00:24:41.090Z,5.01
2023-01-29T00:27:10.830Z,5.22
2023-01-29T00:29:38.406Z,5.45
2023-01-29T00:32:06.441Z,5.45
2023-01-29T00:34:34.103Z,5.34
2023-01-29T00:37:08.810Z,5.49
2023-01-29T00:39:47.706Z,5.20
2023-01-29T00:42:34.591Z,5.58
2023-01-29T00:45:02.180Z,5.07
2023-01-29T00:47:33.354Z,5.31
2023-01-29T00:50:01.695Z,5.20
2023-01-29T00:52:29.858Z,5.41
2023-01-29T00:54:58.944Z,5.20
2023-01-29T00:57:31.042Z,5.65
2023-01-29T00:59:58.677Z,5.55
2023-01-29T01:02:44.282Z,5.71
2023-01-29T01:05:18.079Z,5.68
2023-01-29T01:07:46.241Z,6.14
2023-01-29T01:10:21.162Z,6.00
2023-01-29T01:12:51.960Z,5.83
2023-01-29T01:15:20.245Z,5.99
2023-01-29T01:17:48.804Z,5.59
2023-01-29T01:20:16.943Z,5.74
2023-01-29T01:22:44.684Z,5.56
2023-01-29T01:25:12.281Z,5.53
2023-01-29T01:27:41.283Z,5.71
2023-01-29T01:30:14.536Z,5.66
2023-01-29T01:32:43.553Z,5.91
2023-01-29T01:35:13.682Z,6.28
2023-01-29T01:37:41.641Z,5.92
2023-01-29T01:40:17.993Z,5.89
2023-01-29T01:42:48.300Z,6.18
2023-01-29T01:45:23.251Z,6.08
2023-01-29T01:47:55.576Z,5.69
2023-01-29T01:50:27.865Z,5.97
2023-01-29T01:53:00.945Z,6.00
2023-01-29T01:55:31.177Z,6.32
2023-01-29T01:58:03.396Z,6.17
2023-01-29T02:00:32.367Z,5.75
2023-01-29T02:03:20.070Z,5.98
2023-01-29T02:06:06.244Z,6.19
2023-01-29T02:08:57.519Z,6.01
2023-01-29T02:11:26.198Z,5.84
2023-01-29T02:13:54.495Z,5.90
2023-01-29T02:16:24.664Z,5.67
2023-01-29T02:18:52.606Z,5.53
2023-01-29T02:21:51.640Z,5.97
2023-01-29T02:24:54.281Z,5.65
2023-01-29T02:27:28.155Z,5.88
2023-01-29T02:30:06.898Z,5.67
2023-01-29T02:32:54.684Z,5.63
2023-01-29T02:35:32.027Z,5.96
2023-01-29T02:38:12.863Z,5.60
2023-01-29T02:40:45.122Z,6.07
2023-01-29T02:43:24.368Z,6.06
2023-01-29T02:46:01.240Z,5.50
2023-01-29T02:48:39.912Z,5.68
2023-01-29T02:51:15.052Z,5.83
2023-01-29T02:53:52.118Z,5.89
2023-01-29T02:56:25.088Z,6.08
2023-01-29T02:58:58.402Z,5.88
2023-01-29T03:01:33.921Z,5.50
2023-01-29T03:04:08.071Z,5.63
2023-01-29T03:06:39.529Z,5.50
2023-01-29T03:09:12.342Z,5.59
2023-01-29T03:11:43.308Z,5.48
2023-01-29T03:14:16.860Z,5.48
2023-01-29T03:16:49.987Z,5.60
2023-01-29T03:19:20.401Z,5.55
2023-01-29T03:21:59.065Z,5.39
2023-01-29T03:24:52.692Z,5.73
2023-01-29T03:27:42.109Z,5.01
2023-01-29T03:30:29.926Z,5.85
2023-01-29T03:33:01.921Z,5.56
2023-01-29T03:35:35.361Z,5.57
2023-01-29T03:38:04.428Z,5.60
2023-01-29T03:40:39.607Z,5.24
2023-01-29T03:43:13.194Z,5.43
2023-01-29T03:45:51.331Z,5.61
2023-01-29T03:48:33.133Z,5.32
2023-01-29T03:51:13.130Z,5.44
2023-01-29T03:53:45.311Z,5.47
2023-01-29T03:56:23.641Z,5.49
2023-01-29T03:58:57.625Z,5.44
2023-01-29T04:01:31.134Z,5.67
2023-01-29T04:04:06.755Z,5.84
2023-01-29T04:06:38.926Z,5.22
2023-01-29T04:09:13.533Z,5.54
2023-01-29T04:11:46.120Z,5.54
2023-01-29T04:14:15.343Z,5.51
2023-01-29T04:16:49.134Z,6.00
2023-01-29T04:19:18.229Z,5.53
2023-01-29T04:21:50.210Z,5.76
2023-01-29T04:24:18.594Z,5.56
2023-01-29T04:27:06.306Z,5.36
2023-01-29T04:29:48.489Z,5.32
2023-01-29T04:32:23.113Z,5.66
2023-01-29T04:35:01.921Z,5.39
2023-01-29T04:37:38.678Z,5.51
2023-01-29T04:40:19.201Z,5.43
2023-01-29T04:42:56.142Z,5.68
2023-01-29T04:45:34.138Z,5.60
2023-01-29T04:48:10.758Z,5.84
2023-01-29T04:50:45.268Z,5.63
2023-01-29T04:53:19.553Z,5.70
2023-01-29T04:55:52.313Z,5.38
2023-01-29T04:58:27.761Z,5.45
2023-01-29T05:00:56.175Z,5.86
2023-01-29T05:03:27.593Z,6.09
2023-01-29T05:05:59.374Z,5.65
2023-01-29T05:08:29.477Z,5.42
2023-01-29T05:10:58.674Z,5.41
2023-01-29T05:13:27.773Z,5.21
2023-01-29T05:16:00.580Z,5.60
2023-01-29T05:18:29.502Z,5.34
2023-01-29T05:21:04.142Z,5.49
2023-01-29T05:23:31.942Z,5.49
2023-01-29T05:25:59.750Z,5.30
2023-01-29T05:28:26.360Z,5.40
2023-01-29T05:30:56.505Z,5.57
2023-01-29T05:33:25.597Z,5.48
2023-01-29T05:35:53.296Z,5.85
2023-01-29T05:38:22.843Z,5.88
2023-01-29T05:40:50.648Z,6.03
2023-01-29T05:43:20.113Z,6.18
2023-01-29T05:45:54.063Z,6.03
2023-01-29T05:48:21.717Z,5.85
2023-01-29T05:50:49.646Z,5.58
2023-01-29T05:53:17.423Z,5.68
2023-01-29T05:55:47.178Z,6.04
2023-01-29T05:58:15.211Z,5.53
2023-01-29T06:00:43.170Z,5.75
2023-01-29T06:03:10.792Z,5.42
2023-01-29T06:05:39.079Z,5.52
2023-01-29T06:08:07.938Z,5.52
2023-01-29T06:10:36.004Z,5.61
2023-01-29T06:13:04.992Z,5.24
2023-01-29T06:15:32.587Z,5.20
2023-01-29T06:18:00.206Z,4.93
2023-01-29T06:20:27.854Z,5.25
2023-01-29T06:22:55.493Z,4.83
2023-01-29T06:25:23.106Z,4.92
2023-01-29T06:27:51.653Z,5.02
2023-01-29T06:30:20.976Z,4.87
2023-01-29T06:32:48.570Z,5.07
2023-01-29T06:35:16.203Z,4.94
2023-01-29T06:37:43.795Z,4.74
2023-01-29T06:40:12.534Z,4.57
2023-01-29T06:42:40.265Z,4.54
2023-01-29T06:45:08.959Z,4.70
2023-01-29T06:47:37.984Z,4.51
2023-01-29T06:50:06.324Z,4.42
2023-01-29T06:52:34.075Z,3.98
2023-01-29T06:55:01.657Z,4.13
2023-01-29T06:57:30.830Z,4.13
2023-01-29T06:59:58.406Z,4.33
2023-01-29T07:02:26.091Z,4.65
2023-01-29T07:04:55.142Z,4.65
2023-01-29T07:07:22.778Z,4.24
2023-01-29T07:09:50.367Z,4.48
2023-01-29T07:12:18.013Z,4.17
2023-01-29T07:14:45.572Z,4.02
2023-01-29T07:17:13.172Z,4.44
2023-01-29T07:19:40.749Z,4.72
2023-01-29T07:22:09.662Z,4.47
2023-01-29T07:24:37.247Z,4.70
2023-01-29T07:27:04.825Z,4.86
2023-01-29T07:29:32.414Z,4.92
2023-01-29T07:32:00.107Z,5.02
2023-01-29T07:34:27.749Z,4.74
2023-01-29T07:36:56.798Z,4.64
2023-01-29T07:39:25.939Z,4.63
2023-01-29T07:41:53.515Z,4.78
2023-01-29T07:44:21.097Z,4.76
2023-01-29T07:46:48.695Z,4.46
2023-01-29T07:49:16.572Z,4.55
2023-01-29T07:51:44.144Z,4.57
2023-01-29T07:54:11.743Z,4.64
2023-01-29T07:56:40.705Z,4.55
2023-01-29T07:59:08.293Z,4.53
2023-01-29T08:01:36.074Z,4.59
2023-01-29T08:04:03.683Z,4.32
2023-01-29T08:06:31.284Z,4.24
2023-01-29T08:08:59.701Z,4.52
2023-01-29T08:11:27.283Z,4.41
2023-01-29T08:13:57.218Z,4.77
2023-01-29T08:16:24.847Z,4.89
2023-01-29T08:18:52.511Z,5.21
2023-01-29T08:21:22.488Z,5.31
2023-01-29T08:23:50.053Z,4.77
2023-01-29T08:26:17.677Z,4.98
2023-01-29T08:28:45.368Z,4.77
2023-01-29T08:31:20.480Z,5.22
2023-01-29T08:33:48.424Z,5.04
2023-01-29T08:36:16.081Z,5.22
2023-01-29T08:38:43.706Z,5.42
2023-01-29T08:41:11.291Z,5.19
2023-01-29T08:43:38.928Z,4.83
2023-01-29T08:46:07.816Z,4.71
2023-01-29T08:48:36.931Z,5.20
2023-01-29T08:51:05.188Z,5.28
2023-01-29T08:53:33.206Z,5.00
2023-01-29T08:56:00.861Z,5.12
2023-01-29T08:58:28.446Z,5.41
2023-01-29T09:00:56.305Z,5.55
2023-01-29T09:03:23.954Z,5.56
2023-01-29T09:05:52.895Z,6.06
2023-01-29T09:08:20.514Z,5.42
2023-01-29T09:10:48.091Z,5.76
2023-01-29T09:13:15.854Z,5.72
2023-01-29T09:15:43.429Z,5.48
2023-01-29T09:18:11.152Z,5.91
2023-01-29T09:20:38.929Z,5.91
2023-01-29T09:23:09.596Z,5.75
2023-01-29T09:25:38.348Z,5.49
2023-01-29T09:28:07.160Z,5.94
2023-01-29T09:30:37.576Z,6.06
2023-01-29T09:33:05.592Z,5.82
2023-01-29T09:35:34.112Z,5.88
2023-01-29T09:38:01.729Z,5.55
2023-01-29T09:40:37.332Z,5.53
2023-01-29T09:43:08.709Z,5.46
2023-01-29T09:45:37.761Z,6.18
2023-01-29T09:48:06.728Z,5.95
2023-01-29T09:50:38.497Z,6.03
2023-01-29T09:53:13.445Z,5.98
2023-01-29T09:55:47.338Z,5.95
2023-01-29T09:58:20.563Z,6.17
2023-01-29T10:00:55.438Z,5.73
2023-01-29T10:03:38.273Z,6.30
2023-01-29T10:06:22.182Z,6.00
2023-01-29T10:09:16.013Z,5.81
2023-01-29T10:11:58.227Z,5.83
2023-01-29T10:14:37.785Z,5.49
2023-01-29T10:17:22.843Z,5.61
2023-01-29T10:20:11.195Z,6.19
2023-01-29T10:22:59.969Z,5.91
2023-01-29T10:25:28.169Z,6.05
2023-01-29T10:27:59.898Z,5.79
2023-01-29T10:30:34.114Z,6.61
2023-01-29T10:33:05.111Z,6.23
2023-01-29T10:35:36.794Z,6.12
2023-01-29T10:38:22.396Z,6.01
2023-01-29T10:40:56.939Z,6.34
2023-01-29T10:43:37.588Z,6.08
2023-01-29T10:46:15.331Z,6.55
2023-01-29T10:48:54.558Z,6.81
2023-01-29T10:51:36.435Z,6.46
2023-01-29T10:54:15.718Z,6.59
2023-01-29T10:56:55.950Z,6.28
2023-01-29T10:59:50.036Z,6.41
2023-01-29T11:02:22.047Z,6.62
2023-01-29T11:04:49.997Z,6.53
2023-01-29T11:07:20.360Z,6.29
2023-01-29T11:09:56.581Z,6.19
2023-01-29T11:12:30.317Z,6.09
2023-01-29T11:15:05.561Z,5.85
2023-01-29T11:17:33.303Z,6.02
2023-01-29T11:20:00.933Z,5.98
2023-01-29T11:22:29.899Z,6.46
2023-01-29T11:25:16.415Z,6.17
2023-01-29T11:27:46.732Z,6.36
2023-01-29T11:30:28.175Z,6.60
2023-01-29T11:33:07.821Z,6.24
2023-01-29T11:35:36.504Z,6.05
2023-01-29T11:38:10.267Z,6.10
2023-01-29T11:40:41.548Z,6.31
2023-01-29T11:43:20.972Z,6.68
2023-01-29T11:45:52.251Z,6.77
2023-01-29T11:48:22.405Z,6.30
2023-01-29T11:50:56.123Z,6.35
2023-01-29T11:53:29.074Z,6.40
2023-01-29T11:55:57.033Z,6.72
2023-01-29T11:58:30.404Z,6.23
2023-01-29T12:01:01.092Z,6.66
2023-01-29T12:03:35.365Z,6.11
2023-01-29T12:06:07.671Z,6.31
2023-01-29T12:08:38.475Z,6.45
2023-01-29T12:11:12.581Z,5.88
2023-01-29T12:13:43.186Z,6.57
2023-01-29T12:16:22.539Z,5.95
2023-01-29T12:18:54.845Z,6.51
2023-01-29T12:21:31.331Z,6.88
2023-01-29T12:24:02.664Z,6.56
2023-01-29T12:26:33.717Z,6.61
2023-01-29T12:29:16.474Z,6.35
2023-01-29T12:31:53.293Z,6.80
2023-01-29T12:34:28.389Z,6.17
2023-01-29T12:37:00.442Z,6.44
2023-01-29T12:39:28.259Z,6.53
2023-01-29T12:42:03.358Z,6.30
2023-01-29T12:44:34.579Z,6.96
2023-01-29T12:47:08.377Z,6.68
2023-01-29T12:49:40.571Z,6.65
2023-01-29T12:52:13.472Z,6.44
2023-01-29T12:54:46.777Z,6.58
2023-01-29T12:57:22.033Z,6.41
2023-01-29T12:59:56.208Z,6.31
2023-01-29T13:02:33.448Z,6.44
2023-01-29T13:05:05.636Z,6.59
2023-01-29T13:07:37.508Z,6.59
2023-01-29T13:10:12.823Z,7.03
2023-01-29T13:12:47.112Z,6.87
2023-01-29T13:15:24.197Z,6.84
2023-01-29T13:17:58.735Z,7.02
2023-01-29T13:20:30.481Z,6.32
2023-01-29T13:23:04.437Z,6.72
2023-01-29T13:25:32.156Z,6.82
2023-01-29T13:27:59.780Z,6.64
2023-01-29T13:30:30.514Z,6.43
2023-01-29T13:33:10.294Z,6.88
2023-01-29T13:35:41.968Z,6.71
2023-01-29T13:38:24.706Z,6.61
2023-01-29T13:40:52.498Z,6.80
2023-01-29T13:43:22.702Z,6.84
2023-01-29T13:45:53.804Z,6.60
2023-01-29T13:48:27.629Z,6.79
2023-01-29T13:50:57.372Z,7.03
2023-01-29T13:53:27.866Z,7.07
2023-01-29T13:55:55.587Z,7.10
2023-01-29T13:58:53.750Z,6.64
2023-01-29T14:02:03.915Z,6.88
2023-01-29T14:04:34.040Z,6.90
2023-01-29T14:07:17.723Z,6.99
2023-01-29T14:10:04.119Z,6.89
2023-01-29T14:12:40.088Z,6.72
2023-01-29T14:15:22.648Z,6.59
2023-01-29T14:18:19.750Z,6.60
2023-01-29T14:21:07.451Z,6.41
2023-01-29T14:23:44.279Z,6.79
2023-01-29T14:26:25.064Z,6.21
2023-01-29T14:28:57.362Z,6.41
2023-01-29T14:31:37.688Z,6.46
2023-01-29T14:34:09.006Z,5.95
2023-01-29T14:36:42.825Z,6.06
2023-01-29T14:39:23.373Z,6.03
2023-01-29T14:41:52.806Z,6.01
2023-01-29T14:44:49.421Z,5.82
2023-01-29T14:47:20.551Z,6.05
2023-01-29T14:49:52.581Z,6.65
2023-01-29T14:52:26.592Z,6.48
2023-01-29T14:54:58.421Z,5.96
2023-01-29T14:57:26.651Z,5.93
2023-01-29T14:59:58.034Z,6.39
2023-01-29T15:02:33.680Z,6.06
2023-01-29T15:05:04.511Z,6.38
2023-01-29T15:07:39.394Z,5.99
2023-01-29T15:10:24.107Z,6.53
2023-01-29T15:12:56.858Z,6.24
2023-01-29T15:15:33.209Z,6.08
2023-01-29T15:18:06.459Z,6.70
2023-01-29T15:20:35.794Z,6.97
2023-01-29T15:23:06.120Z,6.33
2023-01-29T15:25:37.824Z,6.42
2023-01-29T15:28:10.129Z,5.86
2023-01-29T15:30:38.833Z,5.91
2023-01-29T15:33:11.618Z,6.28
2023-01-29T15:35:41.843Z,6.32
2023-01-29T15:38:17.918Z,5.91
2023-01-29T15:40:53.813Z,6.19
2023-01-29T15:43:23.417Z,6.19
2023-01-29T15:45:52.060Z,5.73
2023-01-29T15:48:23.908Z,5.92
2023-01-29T15:50:54.990Z,6.68
2023-01-29T15:53:37.376Z,6.41
2023-01-29T15:56:09.850Z,5.91
2023-01-29T15:58:40.248Z,5.75
2023-01-29T16:01:08.185Z,6.23
2023-01-29T16:03:38.428Z,5.54
2023-01-29T16:06:08.701Z,5.74
2023-01-29T16:08:41.020Z,5.74
2023-01-29T16:11:09.769Z,5.84
2023-01-29T16:13:41.680Z,6.04
2023-01-29T16:16:21.465Z,5.61
2023-01-29T16:18:59.878Z,5.82
2023-01-29T16:21:31.386Z,5.91
2023-01-29T16:24:03.579Z,5.45
2023-01-29T16:26:34.976Z,5.47
2023-01-29T16:29:06.355Z,5.14
2023-01-29T16:31:34.637Z,5.53
2023-01-29T16:34:07.990Z,5.59
2023-01-29T16:36:35.794Z,5.47
2023-01-29T16:39:14.055Z,6.06
2023-01-29T16:41:41.730Z,5.79
2023-01-29T16:44:33.635Z,5.80
2023-01-29T16:47:12.690Z,5.58
2023-01-29T16:49:46.498Z,5.81
2023-01-29T16:52:20.190Z,5.64
2023-01-29T16:54:49.201Z,5.61
2023-01-29T16:57:20.485Z,5.66
2023-01-29T16:59:48.612Z,5.56
2023-01-29T17:02:23.494Z,5.49
2023-01-29T17:04:53.259Z,5.91
2023-01-29T17:07:22.234Z,5.71
2023-01-29T17:09:54.218Z,5.70
2023-01-29T17:12:26.126Z,5.32
2023-01-29T17:14:55.750Z,5.84
2023-01-29T17:17:30.181Z,5.29
2023-01-29T17:19:58.596Z,5.31
2023-01-29T17:22:26.190Z,5.44
2023-01-29T17:24:55.190Z,5.32
2023-01-29T17:27:24.033Z,5.29
2023-01-29T17:29:52.753Z,5.54
2023-01-29T17:32:21.222Z,5.21
2023-01-29T17:34:48.859Z,5.60
2023-01-29T17:37:17.434Z,5.27
2023-01-29T17:39:47.264Z,5.26
2023-01-29T17:42:16.379Z,4.86
2023-01-29T17:44:44.085Z,5.03
2023-01-29T17:47:14.978Z,5.34
2023-01-29T17:49:43.096Z,5.28
2023-01-29T17:52:10.845Z,5.75
2023-01-29T17:54:38.639Z,5.59
2023-01-29T17:57:06.228Z,5.47
2023-01-29T17:59:35.181Z,5.30
2023-01-29T18:02:02.824Z,5.49
2023-01-29T18:04:30.431Z,5.62
2023-01-29T18:06:58.910Z,5.44
2023-01-29T18:09:27.376Z,5.14
2023-01-29T18:11:55.001Z,5.55
2023-01-29T18:14:22.587Z,5.65
2023-01-29T18:16:51.533Z,5.38
2023-01-29T18:19:23.029Z,5.38
2023-01-29T18:21:52.448Z,5.01
2023-01-29T18:24:20.736Z,5.23
2023-01-29T18:26:48.768Z,5.02
2023-01-29T18:29:16.425Z,4.96
2023-01-29T18:31:44.226Z,4.86
2023-01-29T18:34:13.300Z,4.96
2023-01-29T18:36:40.871Z,4.85
2023-01-29T18:39:08.529Z,5.02
2023-01-29T18:41:36.164Z,5.30
2023-01-29T18:44:03.825Z,5.38
2023-01-29T18:46:31.410Z,5.18
2023-01-29T18:48:58.990Z,5.30
2023-01-29T18:51:28.070Z,5.14
2023-01-29T18:53:55.687Z,5.05
2023-01-29T18:56:23.290Z,5.23
2023-01-29T18:58:55.788Z,4.95
2023-01-29T19:01:24.646Z,4.83
2023-01-29T19:03:52.279Z,4.81
2023-01-29T19:06:19.936Z,4.80
2023-01-29T19:08:48.995Z,4.79
2023-01-29T19:11:18.170Z,4.83
2023-01-29T19:13:47.858Z,4.69
2023-01-29T19:16:15.435Z,4.70
2023-01-29T19:18:43.556Z,4.87
2023-01-29T19:21:13.075Z,4.78
2023-01-29T19:23:41.088Z,5.09
2023-01-29T19:26:10.283Z,5.03
2023-01-29T19:28:38.016Z,4.85
2023-01-29T19:31:05.956Z,4.93
2023-01-29T19:33:33.704Z,4.83
2023-01-29T19:36:01.390Z,5.04
2023-01-29T19:38:33.255Z,5.08
2023-01-29T19:41:01.239Z,4.72
2023-01-29T19:43:31.626Z,4.97
2023-01-29T19:46:00.302Z,4.79
2023-01-29T19:48:28.947Z,5.31
2023-01-29T19:50:57.697Z,4.82
2023-01-29T19:53:25.692Z,4.90
2023-01-29T19:56:00.795Z,4.84
2023-01-29T19:58:29.324Z,4.90
2023-01-29T20:00:59.868Z,4.95
2023-01-29T20:03:28.778Z,5.23
2023-01-29T20:05:56.892Z,5.18
2023-01-29T20:08:24.822Z,4.88
2023-01-29T20:10:52.401Z,5.50
2023-01-29T20:13:20.037Z,5.25
2023-01-29T20:15:48.408Z,5.22
2023-01-29T20:18:18.069Z,5.22
2023-01-29T20:20:47.975Z,5.33
2023-01-29T20:23:25.065Z,5.04
2023-01-29T20:26:03.744Z,5.00
2023-01-29T20:28:31.448Z,5.30
2023-01-29T20:30:59.194Z,5.39
2023-01-29T20:33:29.024Z,4.74
2023-01-29T20:35:57.860Z,5.12
2023-01-29T20:38:30.101Z,5.57
2023-01-29T20:41:03.042Z,5.26
2023-01-29T20:43:30.724Z,5.20
2023-01-29T20:45:58.672Z,5.26
2023-01-29T20:48:26.515Z,4.97
2023-01-29T20:50:55.854Z,5.20
2023-01-29T20:53:23.572Z,5.41
2023-01-29T20:55:51.335Z,5.41
2023-01-29T20:58:19.205Z,5.21
2023-01-29T21:00:47.627Z,5.33
2023-01-29T21:03:15.288Z,5.44
2023-01-29T21:05:42.923Z,5.45
2023-01-29T21:08:11.949Z,5.45
2023-01-29T21:10:40.164Z,5.14
2023-01-29T21:13:08.688Z,5.27
2023-01-29T21:15:36.310Z,5.62
2023-01-29T21:18:05.143Z,5.23
2023-01-29T21:20:33.043Z,5.50
2023-01-29T21:23:04.155Z,5.64
2023-01-29T21:25:34.270Z,5.62
2023-01-29T21:28:03.637Z,5.46
2023-01-29T21:30:31.544Z,5.69
2023-01-29T21:32:59.159Z,5.94
2023-01-29T21:35:27.068Z,5.50
2023-01-29T21:37:54.968Z,5.60
2023-01-29T21:40:24.962Z,5.60
2023-01-29T21:43:12.659Z,5.14
2023-01-29T21:45:40.977Z,5.71
2023-01-29T21:48:09.015Z,5.48
2023-01-29T21:50:37.046Z,5.89
2023-01-29T21:53:05.325Z,5.87
2023-01-29T21:55:33.445Z,6.13
2023-01-29T21:58:02.466Z,6.00
2023-01-29T22:00:30.059Z,5.42
2023-01-29T22:02:57.873Z,6.15
2023-01-29T22:05:26.438Z,5.88
2023-01-29T22:07:54.012Z,5.98
2023-01-29T22:10:22.330Z,5.77
2023-01-29T22:12:50.267Z,6.01
2023-01-29T22:15:19.369Z,5.69
2023-01-29T22:17:47.088Z,5.83
2023-01-29T22:20:16.209Z,5.43
2023-01-29T22:22:44.007Z,5.85
2023-01-29T22:25:11.765Z,5.83
2023-01-29T22:27:39.396Z,5.79
2023-01-29T22:30:08.397Z,5.72
2023-01-29T22:32:37.464Z,5.90
2023-01-29T22:35:05.678Z,5.48
2023-01-29T22:37:33.263Z,5.70
2023-01-29T22:40:00.854Z,5.82
2023-01-29T22:42:28.817Z,5.55
2023-01-29T22:44:56.498Z,5.36
2023-01-29T22:47:24.175Z,5.20
2023-01-29T22:49:53.112Z,5.33
2023-01-29T22:52:22.493Z,5.30
2023-01-29T22:54:51.368Z,5.52
2023-01-29T22:57:19.249Z,5.22
2023-01-29T22:59:46.932Z,5.44
2023-01-29T23:02:14.506Z,5.78
2023-01-29T23:04:42.147Z,5.60
2023-01-29T23:07:11.315Z,5.55
2023-01-29T23:09:38.948Z,5.15
2023-01-29T23:12:07.865Z,5.29
2023-01-29T23:14:35.565Z,5.41
2023-01-29T23:17:03.186Z,5.09
2023-01-29T23:19:30.943Z,5.43
2023-01-29T23:21:58.753Z,5.22
2023-01-29T23:24:27.715Z,5.13
2023-01-29T23:27:12.940Z,5.05
2023-01-29T23:29:40.520Z,4.99
2023-01-29T23:32:08.129Z,5.21
2023-01-29T23:34:35.751Z,5.19
2023-01-29T23:37:03.423Z,5.43
2023-01-29T23:39:32.425Z,5.17
2023-01-29T23:42:00.119Z,5.61
2023-01-29T23:44:27.845Z,5.56
2023-01-29T23:46:55.953Z,5.82
2023-01-29T23:49:23.625Z,5.84
2023-01-29T23:51:51.611Z,5.84
2023-01-29T23:54:19.250Z,5.45
2023-01-29T23:56:48.237Z,5.61
2023-01-29T23:59:16.140Z,5.46
